createdAt,value
2019-02-10T00:01:56.046Z,1.80
2019-02-10T00:04:24.827Z,2.40
2019-02-10T00:06:53.752Z,1.90
2019-02-10T00:09:22.691Z,1.70
2019-02-10T00:11:51.624Z,2.27
2019-02-10T00:14:20.401Z,2.23
2019-02-10T00:16:49.305Z,1.33
2019-02-10T00:19:18.575Z,1.77
2019-02-10T00:21:47.998Z,1.93
2019-02-10T00:24:16.946Z,2.63
2019-02-10T00:26:45.819Z,2.03
2019-02-10T00:29:14.624Z,2.10
2019-02-10T00:31:43.725Z,1.63
2019-02-10T00:34:13.056Z,1.83
2019-02-10T00:36:41.912Z,1.70
2019-02-10T00:39:10.706Z,1.67
2019-02-10T00:41:39.995Z,1.80
2019-02-10T00:44:09.126Z,1.90
2019-02-10T00:46:37.949Z,2.07
2019-02-10T00:49:06.785Z,1.93
2019-02-10T00:51:35.663Z,1.70
2019-02-10T00:54:05.164Z,2.83
2019-02-10T00:56:33.987Z,1.93
2019-02-10T00:59:02.799Z,1.80
2019-02-10T01:01:31.568Z,2.53
2019-02-10T01:04:00.804Z,2.80
2019-02-10T01:06:29.674Z,2.40
2019-02-10T01:08:59.033Z,2.37
2019-02-10T01:11:27.964Z,2.77
2019-02-10T01:13:56.843Z,2.50
2019-02-10T01:16:25.632Z,2.27
2019-02-10T01:19:10.502Z,2.50
2019-02-10T01:21:49.725Z,2.37
2019-02-10T01:24:18.540Z,2.20
2019-02-10T01:26:47.259Z,2.17
2019-02-10T01:29:16.391Z,2.40
2019-02-10T01:31:45.495Z,2.10
2019-02-10T01:34:14.421Z,4.00
2019-02-10T01:36:49.499Z,2.10
2019-02-10T01:39:22.486Z,3.17
2019-02-10T01:41:51.573Z,2.67
2019-02-10T01:44:20.460Z,2.43
2019-02-10T01:46:49.359Z,2.60
2019-02-10T01:49:18.204Z,2.40
2019-02-10T01:51:47.049Z,2.57
2019-02-10T01:54:15.919Z,2.57
2019-02-10T01:56:45.028Z,2.43
2019-02-10T01:59:14.537Z,2.70
2019-02-10T02:01:43.427Z,2.45
2019-02-10T02:04:12.484Z,2.90
2019-02-10T02:06:41.332Z,2.50
2019-02-10T02:09:12.352Z,2.90
2019-02-10T02:11:42.364Z,2.90
2019-02-10T02:14:11.280Z,3.93
2019-02-10T02:16:40.100Z,2.80
2019-02-10T02:19:08.976Z,2.70
2019-02-10T02:21:56.919Z,2.20
2019-02-10T02:24:26.988Z,2.60
2019-02-10T02:26:56.319Z,2.23
2019-02-10T02:29:25.405Z,2.20
2019-02-10T02:31:55.391Z,2.30
2019-02-10T02:34:24.258Z,2.60
2019-02-10T02:36:53.329Z,2.13
2019-02-10T02:39:22.079Z,3.17
2019-02-10T02:41:51.002Z,2.50
2019-02-10T02:44:19.809Z,2.40
2019-02-10T02:46:48.644Z,3.03
2019-02-10T02:49:17.540Z,2.80
2019-02-10T02:51:46.439Z,2.73
2019-02-10T02:54:15.808Z,2.90
2019-02-10T02:56:45.115Z,2.67
2019-02-10T02:59:15.592Z,2.37
2019-02-10T03:01:44.381Z,2.70
2019-02-10T03:04:13.460Z,2.97
2019-02-10T03:06:45.976Z,3.27
2019-02-10T03:09:18.193Z,3.00
2019-02-10T03:11:47.029Z,2.50
2019-02-10T03:14:17.336Z,2.40
2019-02-10T03:16:46.204Z,2.40
2019-02-10T03:19:15.125Z,2.53
2019-02-10T03:21:44.337Z,2.50
2019-02-10T03:24:13.386Z,2.60
2019-02-10T03:26:43.436Z,2.57
2019-02-10T03:29:12.301Z,2.50
2019-02-10T03:31:41.481Z,2.53
2019-02-10T03:34:10.443Z,2.13
2019-02-10T03:36:39.272Z,2.20
2019-02-10T03:39:08.184Z,2.60
2019-02-10T03:41:37.036Z,2.20
2019-02-10T03:44:05.954Z,2.10
2019-02-10T03:46:35.287Z,2.23
2019-02-10T03:49:04.807Z,2.03
2019-02-10T03:51:34.145Z,2.00
2019-02-10T03:54:02.979Z,2.13
2019-02-10T03:56:31.991Z,1.90
2019-02-10T03:59:00.721Z,2.13
2019-02-10T04:01:29.807Z,1.83
2019-02-10T04:03:58.748Z,1.93
2019-02-10T04:06:27.724Z,2.40
2019-02-10T04:08:56.596Z,2.10
2019-02-10T04:11:25.463Z,1.77
2019-02-10T04:13:54.266Z,2.57
2019-02-10T04:16:23.115Z,1.67
2019-02-10T04:18:52.053Z,1.60
2019-02-10T04:21:20.914Z,2.03
2019-02-10T04:23:49.704Z,1.90
2019-02-10T04:26:18.712Z,1.73
2019-02-10T04:28:47.646Z,1.87
2019-02-10T04:31:16.723Z,1.77
2019-02-10T04:33:46.265Z,1.57
2019-02-10T04:36:15.308Z,2.27
2019-02-10T04:38:44.207Z,1.77
2019-02-10T04:41:12.996Z,2.00
2019-02-10T04:43:41.929Z,1.70
2019-02-10T04:46:10.747Z,1.57
2019-02-10T04:48:39.611Z,1.83
2019-02-10T04:51:08.509Z,1.83
2019-02-10T04:53:37.359Z,1.70
2019-02-10T04:56:14.268Z,2.00
2019-02-10T04:58:43.231Z,1.80
2019-02-10T05:01:12.984Z,1.13
2019-02-10T05:03:42.304Z,1.40
2019-02-10T05:06:11.205Z,1.63
2019-02-10T05:08:40.204Z,1.67
2019-02-10T05:11:09.173Z,1.60
2019-02-10T05:13:38.001Z,1.43
2019-02-10T05:16:07.007Z,1.70
2019-02-10T05:18:35.912Z,1.70
2019-02-10T05:21:08.016Z,2.17
2019-02-10T05:23:37.181Z,1.87
2019-02-10T05:26:06.220Z,1.93
2019-02-10T05:28:35.406Z,1.90
2019-02-10T05:31:06.470Z,1.47
2019-02-10T05:33:35.486Z,1.77
2019-02-10T05:36:05.764Z,1.73
2019-02-10T05:38:34.915Z,1.40
2019-02-10T05:41:03.762Z,1.50
2019-02-10T05:43:32.592Z,1.67
2019-02-10T05:46:01.571Z,1.80
2019-02-10T05:48:30.409Z,1.90
2019-02-10T05:50:59.428Z,2.00
2019-02-10T05:53:28.344Z,1.87
2019-02-10T05:55:57.202Z,2.33
2019-02-10T05:58:26.032Z,2.03
2019-02-10T06:00:56.344Z,1.50
2019-02-10T06:03:25.387Z,1.40
2019-02-10T06:05:54.240Z,1.57
2019-02-10T06:08:23.344Z,1.30
2019-02-10T06:10:52.148Z,1.80
2019-02-10T06:13:21.384Z,1.53
2019-02-10T06:15:50.272Z,1.63
2019-02-10T06:18:19.065Z,1.70
2019-02-10T06:20:47.992Z,1.40
2019-02-10T06:23:16.869Z,1.67
2019-02-10T06:25:49.185Z,1.23
2019-02-10T06:28:18.119Z,1.80
2019-02-10T06:30:46.880Z,1.67
2019-02-10T06:33:17.223Z,1.47
2019-02-10T06:35:46.823Z,1.03
2019-02-10T06:38:22.164Z,1.77
2019-02-10T06:40:46.824Z,1.03
2019-02-10T06:43:15.692Z,1.57
2019-02-10T06:45:44.997Z,1.50
2019-02-10T06:48:14.048Z,1.50
2019-02-10T06:50:42.788Z,1.03
2019-02-10T06:53:11.775Z,1.83
2019-02-10T06:55:40.616Z,1.70
2019-02-10T06:58:09.835Z,1.67
2019-02-10T07:00:48.739Z,1.47
2019-02-10T07:03:44.105Z,1.60
2019-02-10T07:06:13.367Z,1.33
2019-02-10T07:08:42.288Z,1.70
2019-02-10T07:11:11.547Z,1.53
2019-02-10T07:13:43.191Z,2.37
2019-02-10T07:16:54.478Z,1.50
2019-02-10T07:20:16.908Z,1.33
2019-02-10T07:23:27.376Z,1.60
2019-02-10T07:26:01.696Z,1.60
2019-02-10T07:28:56.845Z,1.40
2019-02-10T07:31:58.650Z,1.63
2019-02-10T07:34:57.675Z,1.63
2019-02-10T07:37:49.132Z,1.37
2019-02-10T07:40:47.687Z,1.80
2019-02-10T07:43:54.236Z,1.50
2019-02-10T07:47:16.583Z,1.63
2019-02-10T07:50:28.549Z,2.10
2019-02-10T07:53:47.980Z,2.67
2019-02-10T07:57:02.573Z,1.40
2019-02-10T07:59:47.752Z,2.03
2019-02-10T08:03:07.512Z,2.30
2019-02-10T08:06:23.665Z,1.40
2019-02-10T08:09:06.084Z,1.37
2019-02-10T08:12:16.481Z,2.10
2019-02-10T08:15:26.569Z,1.87
2019-02-10T08:18:24.587Z,1.80
2019-02-10T08:21:53.311Z,1.43
2019-02-10T08:25:00.130Z,1.30
2019-02-10T08:28:04.500Z,2.10
2019-02-10T08:31:24.508Z,1.92
2019-02-10T08:34:09.176Z,1.57
2019-02-10T08:37:07.639Z,1.53
2019-02-10T08:40:01.513Z,1.50
2019-02-10T08:42:58.111Z,1.57
2019-02-10T08:45:50.916Z,1.30
2019-02-10T08:48:57.360Z,1.50
2019-02-10T08:52:00.399Z,1.73
2019-02-10T08:54:29.199Z,1.97
2019-02-10T08:56:58.373Z,1.50
2019-02-10T08:59:28.682Z,1.50
2019-02-10T09:01:59.508Z,1.63
2019-02-10T09:04:29.479Z,1.67
2019-02-10T09:06:59.562Z,1.63
2019-02-10T09:09:28.761Z,2.13
2019-02-10T09:11:57.902Z,3.77
2019-02-10T09:14:27.524Z,1.87
2019-02-10T09:16:56.875Z,1.80
2019-02-10T09:19:25.668Z,1.80
2019-02-10T09:21:54.984Z,1.50
2019-02-10T09:24:23.933Z,1.40
2019-02-10T09:26:52.724Z,2.33
2019-02-10T09:29:21.572Z,1.30
2019-02-10T09:31:50.327Z,2.00
2019-02-10T09:34:19.184Z,1.50
2019-02-10T09:36:48.128Z,1.40
2019-02-10T09:39:17.398Z,1.83
2019-02-10T09:41:46.243Z,1.70
2019-02-10T09:44:15.647Z,2.10
2019-02-10T09:46:44.380Z,1.17
2019-02-10T09:49:13.203Z,1.73
2019-02-10T09:51:41.997Z,1.40
2019-02-10T09:54:10.736Z,1.87
2019-02-10T09:56:40.020Z,1.60
2019-02-10T09:59:08.832Z,1.80
2019-02-10T10:01:37.707Z,4.90
2019-02-10T10:04:06.554Z,9.30
2019-02-10T10:06:35.501Z,6.33
2019-02-10T10:09:05.525Z,6.03
2019-02-10T10:11:34.524Z,9.60
2019-02-10T10:14:03.328Z,10.47
2019-02-10T10:16:32.924Z,19.37
2019-02-10T10:19:05.295Z,10.40
2019-02-10T10:21:34.107Z,4.93
2019-02-10T10:24:03.098Z,3.03
2019-02-10T10:26:31.880Z,6.47
2019-02-10T10:29:00.659Z,8.97
2019-02-10T10:31:29.580Z,2.97
2019-02-10T10:33:58.433Z,2.10
2019-02-10T10:36:27.187Z,1.60
2019-02-10T10:38:56.033Z,2.13
2019-02-10T10:41:24.818Z,2.00
2019-02-10T10:43:53.840Z,2.40
2019-02-10T10:46:22.876Z,2.00
2019-02-10T10:48:51.696Z,1.90
2019-02-10T10:51:20.572Z,1.60
2019-02-10T10:53:49.404Z,2.10
2019-02-10T10:56:18.498Z,1.90
2019-02-10T10:58:51.328Z,2.27
2019-02-10T11:01:25.389Z,2.17
2019-02-10T11:03:51.529Z,1.97
2019-02-10T11:06:20.357Z,2.20
2019-02-10T11:08:49.235Z,2.20
2019-02-10T11:11:18.320Z,2.30
2019-02-10T11:13:47.311Z,2.47
2019-02-10T11:16:17.544Z,2.27
2019-02-10T11:18:46.664Z,2.33
2019-02-10T11:21:18.395Z,2.07
2019-02-10T11:23:47.591Z,2.70
2019-02-10T11:26:16.541Z,2.33
2019-02-10T11:28:45.296Z,2.27
2019-02-10T11:31:14.434Z,2.20
2019-02-10T11:33:43.322Z,2.37
2019-02-10T11:36:12.257Z,2.40
2019-02-10T11:38:41.323Z,2.30
2019-02-10T11:41:10.529Z,2.57
2019-02-10T11:43:39.249Z,2.27
2019-02-10T11:46:08.360Z,2.20
2019-02-10T11:48:37.639Z,2.23
2019-02-10T11:51:06.509Z,2.27
2019-02-10T11:53:35.412Z,1.97
2019-02-10T11:56:04.284Z,2.30
2019-02-10T11:58:33.288Z,2.27
2019-02-10T12:01:02.213Z,2.20
2019-02-10T12:03:31.589Z,2.03
2019-02-10T12:06:00.665Z,2.20
2019-02-10T12:08:35.562Z,1.93
2019-02-10T12:11:00.095Z,2.20
2019-02-10T12:13:28.907Z,2.20
2019-02-10T12:15:57.852Z,2.20
2019-02-10T12:18:28.043Z,2.10
2019-02-10T12:20:57.743Z,2.13
2019-02-10T12:23:26.564Z,2.10
2019-02-10T12:25:55.356Z,2.03
2019-02-10T12:28:24.353Z,1.93
2019-02-10T12:30:53.409Z,2.10
2019-02-10T12:33:22.481Z,2.27
2019-02-10T12:35:58.197Z,2.20
2019-02-10T12:38:21.936Z,2.17
2019-02-10T12:40:51.775Z,2.43
2019-02-10T12:43:20.665Z,2.60
2019-02-10T12:45:49.498Z,2.63
2019-02-10T12:48:18.302Z,2.20
2019-02-10T12:50:47.688Z,2.33
2019-02-10T12:53:16.588Z,2.33
2019-02-10T12:55:45.388Z,2.23
2019-02-10T12:58:14.268Z,2.90
2019-02-10T13:00:43.790Z,3.03
2019-02-10T13:03:12.964Z,2.67
2019-02-10T13:05:45.612Z,2.50
2019-02-10T13:08:14.658Z,2.20
2019-02-10T13:10:43.545Z,2.77
2019-02-10T13:13:19.190Z,2.77
2019-02-10T13:15:42.870Z,2.50
2019-02-10T13:18:13.255Z,2.30
2019-02-10T13:20:42.047Z,2.10
2019-02-10T13:23:14.040Z,2.77
2019-02-10T13:25:43.492Z,2.57
2019-02-10T13:28:12.748Z,2.97
2019-02-10T13:30:41.845Z,2.43
2019-02-10T13:33:10.984Z,2.90
2019-02-10T13:35:39.806Z,2.90
2019-02-10T13:38:08.606Z,2.50
2019-02-10T13:40:39.132Z,3.10
2019-02-10T13:43:07.860Z,3.13
2019-02-10T13:45:37.024Z,2.80
2019-02-10T13:48:06.092Z,2.90
2019-02-10T13:50:35.486Z,3.07
2019-02-10T13:53:04.312Z,2.67
2019-02-10T13:55:33.285Z,2.63
2019-02-10T13:58:02.088Z,2.50
2019-02-10T14:00:31.600Z,6.03
2019-02-10T14:03:01.093Z,2.60
2019-02-10T14:05:29.937Z,3.60
2019-02-10T14:07:58.908Z,2.60
2019-02-10T14:10:28.066Z,2.93
2019-02-10T14:13:01.556Z,2.97
2019-02-10T14:15:30.769Z,2.80
2019-02-10T14:17:59.858Z,4.67
2019-02-10T14:20:29.544Z,4.30
2019-02-10T14:22:58.502Z,4.50
2019-02-10T14:25:27.346Z,4.43
2019-02-10T14:27:56.185Z,5.33
2019-02-10T14:30:25.135Z,5.43
2019-02-10T14:32:54.315Z,5.97
2019-02-10T14:35:23.158Z,7.10
2019-02-10T14:37:53.434Z,5.93
2019-02-10T14:40:22.269Z,6.13
2019-02-10T14:42:51.043Z,6.10
2019-02-10T14:45:19.969Z,5.60
2019-02-10T14:47:49.400Z,5.60
2019-02-10T14:50:18.305Z,5.37
2019-02-10T14:52:47.623Z,5.83
2019-02-10T14:55:16.408Z,5.23
2019-02-10T14:57:45.669Z,4.93
2019-02-10T15:00:15.807Z,4.67
2019-02-10T15:02:44.909Z,4.77
2019-02-10T15:05:13.970Z,4.23
2019-02-10T15:07:42.904Z,4.53
2019-02-10T15:10:12.741Z,4.70
2019-02-10T15:12:41.584Z,4.30
2019-02-10T15:15:11.202Z,4.30
2019-02-10T15:17:40.106Z,4.53
2019-02-10T15:20:09.094Z,4.60
2019-02-10T15:22:40.337Z,5.30
2019-02-10T15:25:09.711Z,4.70
2019-02-10T15:27:38.839Z,4.87
2019-02-10T15:30:09.826Z,4.53
2019-02-10T15:32:38.843Z,4.07
2019-02-10T15:35:07.841Z,4.50
2019-02-10T15:37:36.556Z,4.07
2019-02-10T15:40:06.714Z,4.80
2019-02-10T15:42:37.592Z,4.90
2019-02-10T15:45:07.656Z,5.40
2019-02-10T15:47:36.844Z,5.27
2019-02-10T15:50:07.243Z,5.80
2019-02-10T15:52:36.623Z,2.60
2019-02-10T15:55:07.417Z,2.80
2019-02-10T15:57:36.616Z,2.73
2019-02-10T16:00:08.300Z,2.90
2019-02-10T16:02:37.238Z,2.53
2019-02-10T16:05:06.997Z,3.00
2019-02-10T16:07:35.968Z,2.70
2019-02-10T16:10:05.897Z,2.90
2019-02-10T16:12:34.712Z,3.40
2019-02-10T16:15:04.036Z,4.17
2019-02-10T16:17:32.994Z,3.97
2019-02-10T16:20:01.876Z,4.83
2019-02-10T16:22:30.943Z,5.13
2019-02-10T16:24:59.688Z,5.53
2019-02-10T16:27:28.574Z,6.03
2019-02-10T16:30:00.289Z,5.43
2019-02-10T16:32:29.040Z,6.13
2019-02-10T16:34:58.092Z,6.20
2019-02-10T16:37:27.311Z,6.20
2019-02-10T16:39:56.381Z,7.63
2019-02-10T16:42:25.130Z,6.70
2019-02-10T16:44:54.298Z,6.50
2019-02-10T16:47:23.332Z,6.53
2019-02-10T16:49:52.121Z,7.20
2019-02-10T16:52:21.100Z,6.20
2019-02-10T16:54:49.915Z,7.10
2019-02-10T16:57:19.149Z,7.13
2019-02-10T16:59:48.079Z,7.13
2019-02-10T17:02:17.347Z,7.13
2019-02-10T17:04:46.078Z,6.90
2019-02-10T17:07:34.077Z,6.97
2019-02-10T17:10:02.912Z,7.70
2019-02-10T17:12:32.048Z,7.03
2019-02-10T17:15:01.045Z,7.00
2019-02-10T17:17:30.287Z,7.50
2019-02-10T17:19:59.102Z,8.80
2019-02-10T17:22:28.054Z,8.00
2019-02-10T17:24:56.844Z,7.67
2019-02-10T17:27:25.695Z,8.17
2019-02-10T17:29:54.595Z,7.63
2019-02-10T17:32:23.380Z,8.10
2019-02-10T17:34:52.207Z,7.17
2019-02-10T17:37:20.976Z,7.87
2019-02-10T17:39:49.799Z,7.53
2019-02-10T17:42:18.777Z,8.00
2019-02-10T17:44:47.681Z,7.90
2019-02-10T17:47:16.628Z,7.20
2019-02-10T17:49:45.661Z,8.07
2019-02-10T17:52:14.871Z,8.23
2019-02-10T17:54:43.698Z,8.13
2019-02-10T17:57:12.444Z,8.13
2019-02-10T17:59:41.236Z,7.60
2019-02-10T18:02:10.024Z,8.33
2019-02-10T18:04:38.822Z,7.37
2019-02-10T18:07:08.504Z,8.33
2019-02-10T18:09:37.898Z,8.07
2019-02-10T18:12:06.652Z,8.33
2019-02-10T18:14:54.128Z,7.80
2019-02-10T18:17:32.558Z,7.87
2019-02-10T18:20:13.013Z,7.73
2019-02-10T18:22:49.604Z,8.23
2019-02-10T18:25:25.131Z,7.70
2019-02-10T18:28:13.189Z,7.90
2019-02-10T18:31:01.075Z,8.10
2019-02-10T18:33:47.821Z,8.30
2019-02-10T18:36:28.304Z,8.43
2019-02-10T18:39:13.330Z,8.57
2019-02-10T18:42:04.633Z,7.80
2019-02-10T18:44:55.828Z,7.93
2019-02-10T18:47:32.512Z,8.87
2019-02-10T18:50:23.161Z,8.57
2019-02-10T18:53:14.368Z,7.40
2019-02-10T18:55:54.184Z,7.73
2019-02-10T18:58:42.118Z,7.47
2019-02-10T19:01:42.005Z,8.50
2019-02-10T19:04:17.203Z,7.53
2019-02-10T19:06:51.784Z,7.57
2019-02-10T19:09:29.815Z,6.90
2019-02-10T19:12:19.739Z,4.00
2019-02-10T19:15:06.733Z,3.87
2019-02-10T19:17:45.913Z,4.57
2019-02-10T19:20:26.529Z,5.27
2019-02-10T19:23:05.640Z,5.60
2019-02-10T19:25:52.527Z,5.93
2019-02-10T19:28:41.329Z,5.77
2019-02-10T19:31:28.307Z,5.47
2019-02-10T19:34:07.919Z,4.90
2019-02-10T19:36:56.308Z,4.43
2019-02-10T19:39:41.779Z,3.70
2019-02-10T19:42:26.390Z,3.00
2019-02-10T19:45:32.576Z,2.60
2019-02-10T19:48:26.657Z,2.47
2019-02-10T19:51:17.710Z,2.60
2019-02-10T19:54:02.291Z,2.47
2019-02-10T19:56:49.279Z,2.67
2019-02-10T19:59:52.580Z,2.27
2019-02-10T20:02:40.581Z,2.27
2019-02-10T20:05:27.339Z,2.13
2019-02-10T20:08:27.716Z,2.20
2019-02-10T20:11:14.368Z,2.00
2019-02-10T20:13:56.174Z,1.90
2019-02-10T20:16:44.020Z,1.80
2019-02-10T20:19:26.289Z,1.73
2019-02-10T20:22:09.043Z,1.80
2019-02-10T20:25:00.536Z,1.60
2019-02-10T20:27:54.938Z,2.10
2019-02-10T20:30:49.608Z,1.47
2019-02-10T20:33:37.541Z,1.60
2019-02-10T20:36:12.865Z,1.63
2019-02-10T20:38:58.846Z,1.63
2019-02-10T20:41:34.183Z,2.00
2019-02-10T20:44:20.908Z,1.70
2019-02-10T20:47:16.368Z,2.00
2019-02-10T20:49:52.409Z,1.90
2019-02-10T20:52:33.627Z,2.03
2019-02-10T20:55:16.348Z,1.83
2019-02-10T20:58:03.360Z,1.40
2019-02-10T21:00:56.899Z,1.70
2019-02-10T21:03:50.749Z,1.60
2019-02-10T21:06:41.589Z,1.90
2019-02-10T21:09:33.119Z,2.50
2019-02-10T21:12:20.833Z,2.93
2019-02-10T21:15:21.378Z,2.83
2019-02-10T21:18:08.932Z,3.10
2019-02-10T21:20:56.915Z,2.73
2019-02-10T21:23:43.437Z,3.23
2019-02-10T21:26:26.372Z,3.43
2019-02-10T21:29:05.392Z,3.07
2019-02-10T21:31:50.198Z,3.50
2019-02-10T21:34:38.063Z,3.93
2019-02-10T21:37:29.269Z,4.20
2019-02-10T21:40:26.516Z,4.03
2019-02-10T21:43:09.967Z,4.07
2019-02-10T21:45:57.303Z,4.30
2019-02-10T21:48:30.344Z,4.50
2019-02-10T21:50:59.587Z,5.13
2019-02-10T21:53:28.918Z,4.93
2019-02-10T21:55:57.892Z,4.97
2019-02-10T21:58:26.714Z,5.43
2019-02-10T22:00:55.523Z,5.30
2019-02-10T22:03:25.320Z,4.97
2019-02-10T22:05:54.165Z,5.73
2019-02-10T22:08:23.347Z,4.93
2019-02-10T22:10:52.083Z,5.80
2019-02-10T22:13:21.676Z,5.47
2019-02-10T22:15:50.809Z,5.73
2019-02-10T22:18:19.592Z,5.60
2019-02-10T22:20:48.413Z,5.50
2019-02-10T22:23:17.364Z,5.47
2019-02-10T22:25:46.723Z,5.17
2019-02-10T22:28:15.492Z,6.20
2019-02-10T22:30:44.521Z,6.63
2019-02-10T22:33:13.340Z,6.43
2019-02-10T22:35:42.188Z,6.23
2019-02-10T22:38:11.011Z,7.57
2019-02-10T22:40:40.076Z,7.37
2019-02-10T22:43:09.234Z,8.03
2019-02-10T22:45:38.248Z,9.23
2019-02-10T22:48:09.071Z,9.60
2019-02-10T22:50:37.869Z,10.60
2019-02-10T22:53:07.645Z,9.17
2019-02-10T22:55:36.471Z,9.83
2019-02-10T22:58:05.780Z,10.30
2019-02-10T23:00:51.414Z,8.97
2019-02-10T23:03:20.351Z,8.77
2019-02-10T23:05:49.329Z,8.37
2019-02-10T23:08:18.273Z,8.40
2019-02-10T23:10:47.379Z,7.60
2019-02-10T23:13:16.315Z,8.27
2019-02-10T23:15:45.702Z,7.90
2019-02-10T23:18:14.553Z,7.50
2019-02-10T23:20:43.642Z,7.03
2019-02-10T23:23:12.472Z,7.70
2019-02-10T23:25:41.324Z,5.87
2019-02-10T23:28:10.296Z,7.20
2019-02-10T23:30:39.191Z,7.33
2019-02-10T23:33:12.098Z,6.57
2019-02-10T23:35:41.040Z,5.80
2019-02-10T23:38:09.944Z,5.10
2019-02-10T23:40:40.236Z,5.20
2019-02-10T23:43:09.032Z,4.33
2019-02-10T23:45:37.882Z,4.93
2019-02-10T23:48:07.680Z,4.03
2019-02-10T23:50:36.780Z,3.97
2019-02-10T23:53:06.214Z,3.40
2019-02-10T23:55:35.727Z,3.67
2019-02-10T23:58:05.704Z,3.30
